Private Wetterstation Sandau
Wetterdaten: Freitag, 18.05.2012
Datum Zeit Temp. A. Feuchte A. Luftdruck Regen Wind Richtung Richtung Taupunkt Windchill
18.05.2012 00:01 7,9 C 69 % 1019,2 hPa 0,0 l/m 0,0 km/h (0 Bft) O-SO 112 2,6 C 7,9 C
18.05.2012 00:06 7,8 C 70 % 1019,1 hPa 0,0 l/m 0,0 km/h (0 Bft) O-SO 112 2,7 C 7,8 C
18.05.2012 00:11 7,6 C 70 % 1019,1 hPa 0,0 l/m 0,0 km/h (0 Bft) O-SO 112 2,5 C 7,6 C
18.05.2012 00:16 7,6 C 71 % 1019,1 hPa 0,0 l/m 0,0 km/h (0 Bft) O-SO 112 2,7 C 7,6 C
18.05.2012 00:21 7,4 C 71 % 1019,0 hPa 0,0 l/m 0,0 km/h (0 Bft) SO 135 2,5 C 7,4 C
18.05.2012 00:26 7,3 C 71 % 1018,9 hPa 0,0 l/m 3,6 km/h (1 Bft) O-SO 112 2,4 C 7,3 C
18.05.2012 00:31 7,2 C 71 % 1019,0 hPa 0,0 l/m 0,0 km/h (0 Bft) O-SO 112 2,3 C 7,2 C
18.05.2012 00:36 7,1 C 72 % 1019,0 hPa 0,0 l/m 0,0 km/h (0 Bft) O-SO 112 2,4 C 7,1 C
18.05.2012 00:41 7,0 C 72 % 1018,9 hPa 0,0 l/m 0,0 km/h (0 Bft) O-SO 112 2,3 C 7,0 C
18.05.2012 00:46 6,9 C 72 % 1018,9 hPa 0,0 l/m 2,2 km/h (1 Bft) SO 135 2,2 C 6,9 C
18.05.2012 00:51 6,9 C 73 % 1018,9 hPa 0,0 l/m 0,0 km/h (0 Bft) O-SO 112 2,4 C 6,9 C
18.05.2012 00:56 6,9 C 73 % 1018,9 hPa 0,0 l/m 0,0 km/h (0 Bft) O-SO 112 2,4 C 6,9 C
18.05.2012 01:01 6,9 C 73 % 1019,0 hPa 0,0 l/m 2,2 km/h (1 Bft) O-SO 112 2,4 C 6,9 C
18.05.2012 01:06 6,9 C 73 % 1018,9 hPa 0,0 l/m 0,0 km/h (0 Bft) O-SO 112 2,4 C 6,9 C
18.05.2012 01:11 6,9 C 73 % 1018,9 hPa 0,0 l/m 0,0 km/h (0 Bft) O-SO 112 2,4 C 6,9 C
18.05.2012 01:16 6,8 C 73 % 1019,0 hPa 0,0 l/m 2,5 km/h (1 Bft) O-SO 112 2,3 C 6,8 C
18.05.2012 01:21 6,8 C 73 % 1018,9 hPa 0,0 l/m 2,9 km/h (1 Bft) O 90 2,3 C 6,8 C
18.05.2012 01:26 6,6 C 74 % 1018,9 hPa 0,0 l/m 0,0 km/h (0 Bft) O 90 2,3 C 6,6 C
18.05.2012 01:31 6,6 C 74 % 1018,9 hPa 0,0 l/m 0,0 km/h (0 Bft) O 90 2,3 C 6,6 C
18.05.2012 01:36 6,5 C 74 % 1018,7 hPa 0,0 l/m 1,4 km/h (1 Bft) O 90 2,2 C 6,5 C
18.05.2012 01:41 6,5 C 74 % 1018,8 hPa 0,0 l/m 0,0 km/h (0 Bft) O 90 2,2 C 6,5 C
18.05.2012 01:46 6,5 C 75 % 1018,7 hPa 0,0 l/m 0,0 km/h (0 Bft) O 90 2,4 C 6,5 C
18.05.2012 01:51 6,5 C 75 % 1018,6 hPa 0,0 l/m 0,0 km/h (0 Bft) O-SO 112 2,4 C 6,5 C
18.05.2012 01:56 6,5 C 75 % 1018,8 hPa 0,0 l/m 0,0 km/h (0 Bft) O-SO 112 2,4 C 6,5 C
18.05.2012 02:01 6,5 C 75 % 1018,7 hPa 0,0 l/m 0,0 km/h (0 Bft) SO 135 2,4 C 6,5 C
18.05.2012 02:06 6,4 C 75 % 1018,8 hPa 0,0 l/m 0,0 km/h (0 Bft) O-SO 112 2,3 C 6,4 C
18.05.2012 02:11 6,4 C 76 % 1018,7 hPa 0,0 l/m 0,0 km/h (0 Bft) SO 135 2,5 C 6,4 C
18.05.2012 02:16 6,3 C 76 % 1018,7 hPa 0,0 l/m 0,0 km/h (0 Bft) O 90 2,4 C 6,3 C
18.05.2012 02:21 6,3 C 76 % 1018,6 hPa 0,0 l/m 0,0 km/h (0 Bft) O 90 2,4 C 6,3 C
18.05.2012 02:26 6,3 C 76 % 1018,6 hPa 0,0 l/m 0,0 km/h (0 Bft) O-SO 112 2,4 C 6,3 C
18.05.2012 02:31 6,3 C 76 % 1018,6 hPa 0,0 l/m 2,9 km/h (1 Bft) O-SO 112 2,4 C 6,3 C
18.05.2012 02:36 6,2 C 76 % 1018,7 hPa 0,0 l/m 0,0 km/h (0 Bft) O-SO 112 2,3 C 6,2 C
18.05.2012 02:41 6,2 C 76 % 1018,7 hPa 0,0 l/m 2,2 km/h (1 Bft) O-SO 112 2,3 C 6,2 C
18.05.2012 02:46 6,1 C 76 % 1018,6 hPa 0,0 l/m 0,0 km/h (0 Bft) O-SO 112 2,2 C 6,1 C
18.05.2012 02:51 6,1 C 76 % 1018,6 hPa 0,0 l/m 0,0 km/h (0 Bft) O 90 2,2 C 6,1 C
18.05.2012 02:56 6,1 C 76 % 1018,6 hPa 0,0 l/m 1,4 km/h (1 Bft) O 90 2,2 C 6,1 C
18.05.2012 03:01 6,1 C 76 % 1018,6 hPa 0,0 l/m 3,6 km/h (1 Bft) SO 135 2,2 C 6,1 C
18.05.2012 03:06 6,1 C 76 % 1018,5 hPa 0,0 l/m 1,4 km/h (1 Bft) O-SO 112 2,2 C 6,1 C
18.05.2012 03:11 6,1 C 76 % 1018,5 hPa 0,0 l/m 0,0 km/h (0 Bft) SO 135 2,2 C 6,1 C
18.05.2012 03:16 6,1 C 76 % 1018,5 hPa 0,0 l/m 0,0 km/h (0 Bft) O 90 2,2 C 6,1 C
18.05.2012 03:21 6,0 C 77 % 1018,5 hPa 0,0 l/m 0,0 km/h (0 Bft) O-SO 112 2,3 C 6,0 C
18.05.2012 03:26 6,0 C 77 % 1018,4 hPa 0,0 l/m 2,5 km/h (1 Bft) O 90 2,3 C 6,0 C
18.05.2012 03:31 5,9 C 77 % 1018,4 hPa 0,0 l/m 0,0 km/h (0 Bft) O-SO 112 2,2 C 5,9 C
18.05.2012 03:36 5,9 C 77 % 1018,4 hPa 0,0 l/m 4,0 km/h (1 Bft) O 90 2,2 C 5,9 C
18.05.2012 03:41 5,9 C 77 % 1018,3 hPa 0,0 l/m 1,1 km/h (1 Bft) O-SO 112 2,2 C 5,9 C
18.05.2012 03:46 5,9 C 77 % 1018,4 hPa 0,0 l/m 2,2 km/h (1 Bft) O-SO 112 2,2 C 5,9 C
18.05.2012 03:51 5,9 C 77 % 1018,3 hPa 0,0 l/m 0,0 km/h (0 Bft) O 90 2,2 C 5,9 C
18.05.2012 03:56 5,9 C 77 % 1018,3 hPa 0,0 l/m 2,5 km/h (1 Bft) O 90 2,2 C 5,9 C
18.05.2012 04:01 5,9 C 77 % 1018,2 hPa 0,0 l/m 2,2 km/h (1 Bft) O 90 2,2 C 5,9 C
18.05.2012 04:06 5,9 C 77 % 1018,3 hPa 0,0 l/m 3,2 km/h (1 Bft) O 90 2,2 C 5,9 C
18.05.2012 04:11 5,9 C 77 % 1018,1 hPa 0,0 l/m 2,5 km/h (1 Bft) O 90 2,2 C 5,9 C
18.05.2012 04:16 5,9 C 77 % 1018,2 hPa 0,0 l/m 2,2 km/h (1 Bft) O 90 2,2 C 5,9 C
18.05.2012 04:21 5,9 C 77 % 1018,2 hPa 0,0 l/m 0,0 km/h (0 Bft) O 90 2,2 C 5,9 C
18.05.2012 04:26 5,9 C 77 % 1018,0 hPa 0,0 l/m 1,8 km/h (1 Bft) O 90 2,2 C 5,9 C
18.05.2012 04:31 5,9 C 77 % 1018,0 hPa 0,0 l/m 2,5 km/h (1 Bft) O 90 2,2 C 5,9 C
18.05.2012 04:36 5,9 C 77 % 1018,2 hPa 0,0 l/m 1,8 km/h (1 Bft) O 90 2,2 C 5,9 C
18.05.2012 04:41 5,9 C 77 % 1018,1 hPa 0,0 l/m 0,0 km/h (0 Bft) O 90 2,2 C 5,9 C
18.05.2012 04:46 5,8 C 77 % 1018,0 hPa 0,0 l/m 2,2 km/h (1 Bft) O-SO 112 2,1 C 5,8 C
18.05.2012 04:51 5,8 C 77 % 1017,8 hPa 0,0 l/m 4,0 km/h (1 Bft) O 90 2,1 C 5,8 C
18.05.2012 04:56 5,8 C 77 % 1017,8 hPa 0,0 l/m 2,2 km/h (1 Bft) O 90 2,1 C 5,8 C
18.05.2012 05:01 5,8 C 77 % 1017,8 hPa 0,0 l/m 2,2 km/h (1 Bft) O-SO 112 2,1 C 5,8 C
18.05.2012 05:06 5,6 C 77 % 1017,8 hPa 0,0 l/m 3,2 km/h (1 Bft) O-SO 112 1,9 C 5,6 C
18.05.2012 05:11 5,6 C 77 % 1017,8 hPa 0,0 l/m 0,0 km/h (0 Bft) O-SO 112 1,9 C 5,6 C
18.05.2012 05:16 5,6 C 77 % 1017,8 hPa 0,0 l/m 2,5 km/h (1 Bft) O-SO 112 1,9 C 5,6 C
18.05.2012 05:21 5,6 C 77 % 1017,9 hPa 0,0 l/m 0,0 km/h (0 Bft) O 90 1,9 C 5,6 C
18.05.2012 05:26 5,6 C 77 % 1017,8 hPa 0,0 l/m 2,2 km/h (1 Bft) O 90 1,9 C 5,6 C
18.05.2012 05:31 5,6 C 77 % 1017,8 hPa 0,0 l/m 2,2 km/h (1 Bft) O 90 1,9 C 5,6 C
18.05.2012 05:36 5,6 C 77 % 1017,8 hPa 0,0 l/m 2,9 km/h (1 Bft) O-SO 112 1,9 C 5,6 C
18.05.2012 05:41 5,6 C 77 % 1017,8 hPa 0,0 l/m 2,5 km/h (1 Bft) O-SO 112 1,9 C 5,6 C
18.05.2012 05:46 5,6 C 77 % 1017,6 hPa 0,0 l/m 2,9 km/h (1 Bft) O 90 1,9 C 5,6 C
18.05.2012 05:51 5,6 C 77 % 1017,7 hPa 0,0 l/m 4,3 km/h (1 Bft) O 90 1,9 C 5,6 C
18.05.2012 05:56 5,6 C 77 % 1017,6 hPa 0,0 l/m 3,6 km/h (1 Bft) O-SO 112 1,9 C 5,6 C
18.05.2012 06:01 5,7 C 78 % 1017,6 hPa 0,0 l/m 6,1 km/h (2 Bft) SO 135 2,2 C 4,5 C
18.05.2012 06:06 5,8 C 78 % 1017,5 hPa 0,0 l/m 0,0 km/h (0 Bft) O-SO 112 2,3 C 5,8 C
18.05.2012 06:11 5,8 C 78 % 1017,6 hPa 0,0 l/m 1,4 km/h (1 Bft) O-SO 112 2,3 C 5,8 C
18.05.2012 06:16 5,9 C 78 % 1017,5 hPa 0,0 l/m 2,9 km/h (1 Bft) S-SO 157 2,4 C 5,9 C
18.05.2012 06:21 5,9 C 78 % 1017,5 hPa 0,0 l/m 6,5 km/h (2 Bft) S-SO 157 2,4 C 4,6 C
18.05.2012 06:26 6,1 C 78 % 1017,5 hPa 0,0 l/m 4,0 km/h (1 Bft) SO 135 2,6 C 6,1 C
18.05.2012 06:31 6,1 C 78 % 1017,4 hPa 0,0 l/m 1,4 km/h (1 Bft) O 90 2,6 C 6,1 C
18.05.2012 06:36 6,1 C 78 % 1017,5 hPa 0,0 l/m 2,9 km/h (1 Bft) SO 135 2,6 C 6,1 C
18.05.2012 06:41 6,2 C 78 % 1017,4 hPa 0,0 l/m 2,5 km/h (1 Bft) O-SO 112 2,7 C 6,2 C
18.05.2012 06:46 6,4 C 78 % 1017,4 hPa 0,0 l/m 2,2 km/h (1 Bft) O-SO 112 2,8 C 6,4 C
18.05.2012 06:51 6,4 C 78 % 1017,4 hPa 0,0 l/m 0,0 km/h (0 Bft) O 90 2,8 C 6,4 C
18.05.2012 06:56 6,5 C 78 % 1017,4 hPa 0,0 l/m 2,9 km/h (1 Bft) O 90 2,9 C 6,5 C
18.05.2012 07:01 6,8 C 78 % 1017,4 hPa 0,0 l/m 1,4 km/h (1 Bft) O-NO 67 3,2 C 6,8 C
18.05.2012 07:06 7,0 C 77 % 1017,4 hPa 0,0 l/m 4,0 km/h (1 Bft) SO 135 3,2 C 7,0 C
18.05.2012 07:11 7,3 C 77 % 1017,4 hPa 0,0 l/m 10,4 km/h (2 Bft) SO 135 3,5 C 5,3 C
18.05.2012 07:16 7,6 C 76 % 1017,4 hPa 0,0 l/m 1,8 km/h (1 Bft) SO 135 3,6 C 7,6 C
18.05.2012 07:21 7,9 C 75 % 1017,4 hPa 0,0 l/m 6,5 km/h (2 Bft) SO 135 3,7 C 6,9 C
18.05.2012 07:26 8,2 C 74 % 1017,5 hPa 0,0 l/m 4,3 km/h (1 Bft) S-SO 157 3,8 C 8,2 C
18.05.2012 07:31 8,5 C 73 % 1017,4 hPa 0,0 l/m 1,4 km/h (1 Bft) SO 135 3,9 C 8,5 C
18.05.2012 07:36 8,9 C 72 % 1017,5 hPa 0,0 l/m 6,5 km/h (2 Bft) SO 135 4,1 C 8,1 C
18.05.2012 07:41 9,1 C 71 % 1017,5 hPa 0,0 l/m 7,2 km/h (2 Bft) S-SO 157 4,1 C 8,1 C
18.05.2012 07:46 9,3 C 69 % 1017,5 hPa 0,0 l/m 5,8 km/h (2 Bft) S-SO 157 3,9 C 8,7 C
18.05.2012 07:51 9,5 C 68 % 1017,6 hPa 0,0 l/m 6,1 km/h (2 Bft) S 180 3,9 C 8,9 C
18.05.2012 07:56 9,6 C 67 % 1017,7 hPa 0,0 l/m 9,4 km/h (2 Bft) SO 135 3,8 C 8,3 C
18.05.2012 08:01 9,7 C 65 % 1017,8 hPa 0,0 l/m 13,3 km/h (3 Bft) SO 135 3,4 C 7,8 C
18.05.2012 08:06 9,8 C 65 % 1017,7 hPa 0,0 l/m 7,9 km/h (2 Bft) SO 135 3,5 C 8,8 C
18.05.2012 08:11 9,9 C 64 % 1017,8 hPa 0,0 l/m 5,0 km/h (1 Bft) SO 135 3,4 C 9,6 C
18.05.2012 08:16 10,1 C 64 % 1017,6 hPa 0,0 l/m 10,8 km/h (2 Bft) S 180 3,6 C 10,1 C
18.05.2012 08:21 10,1 C 63 % 1017,7 hPa 0,0 l/m 6,1 km/h (2 Bft) SO 135 3,4 C 10,1 C
18.05.2012 08:26 10,3 C 63 % 1017,7 hPa 0,0 l/m 6,1 km/h (2 Bft) O-SO 112 3,6 C 10,3 C
18.05.2012 08:31 10,4 C 62 % 1017,5 hPa 0,0 l/m 2,5 km/h (1 Bft) O-SO 112 3,4 C 10,4 C
18.05.2012 08:36 10,6 C 62 % 1017,6 hPa 0,0 l/m 7,2 km/h (2 Bft) SO 135 3,6 C 10,6 C
18.05.2012 08:41 10,8 C 62 % 1017,5 hPa 0,0 l/m 2,5 km/h (1 Bft) SO 135 3,8 C 10,8 C
18.05.2012 08:46 11,1 C 61 % 1017,5 hPa 0,0 l/m 6,1 km/h (2 Bft) SO 135 3,9 C 11,1 C
18.05.2012 08:51 11,3 C 60 % 1017,5 hPa 0,0 l/m 4,3 km/h (1 Bft) O-SO 112 3,8 C 11,3 C
18.05.2012 08:56 11,6 C 58 % 1017,5 hPa 0,0 l/m 14,0 km/h (3 Bft) O-SO 112 3,6 C 11,6 C
18.05.2012 09:01 11,9 C 58 % 1017,5 hPa 0,0 l/m 11,5 km/h (2 Bft) O-SO 112 3,9 C 11,9 C
18.05.2012 09:06 12,1 C 56 % 1017,4 hPa 0,0 l/m 7,9 km/h (2 Bft) S-SO 157 3,6 C 12,1 C
18.05.2012 09:11 12,3 C 56 % 1017,3 hPa 0,0 l/m 16,6 km/h (3 Bft) SO 135 3,8 C 12,3 C
18.05.2012 09:16 12,5 C 55 % 1017,4 hPa 0,0 l/m 11,9 km/h (2 Bft) SO 135 3,7 C 12,5 C
18.05.2012 09:21 12,7 C 54 % 1017,2 hPa 0,0 l/m 16,6 km/h (3 Bft) O 90 3,6 C 12,7 C
18.05.2012 09:26 12,9 C 53 % 1017,4 hPa 0,0 l/m 10,1 km/h (2 Bft) S-SO 157 3,6 C 12,9 C
18.05.2012 09:31 13,1 C 52 % 1017,3 hPa 0,0 l/m 9,7 km/h (2 Bft) SO 135 3,5 C 13,1 C
18.05.2012 09:36 13,3 C 51 % 1017,4 hPa 0,0 l/m 4,7 km/h (1 Bft) S-SO 157 3,4 C 13,3 C
18.05.2012 09:41 13,3 C 51 % 1017,3 hPa 0,0 l/m 5,0 km/h (1 Bft) O-SO 112 3,4 C 13,3 C
18.05.2012 09:46 13,5 C 51 % 1017,1 hPa 0,0 l/m 4,3 km/h (1 Bft) NO 45 3,6 C 13,5 C
18.05.2012 09:51 13,6 C 50 % 1017,2 hPa 0,0 l/m 12,2 km/h (2 Bft) O 90 3,4 C 13,6 C
18.05.2012 09:56 13,6 C 50 % 1017,1 hPa 0,0 l/m 6,1 km/h (2 Bft) SO 135 3,4 C 13,6 C
18.05.2012 10:01 13,8 C 49 % 1017,0 hPa 0,0 l/m 6,1 km/h (2 Bft) SO 135 3,3 C 13,8 C
18.05.2012 10:06 13,9 C 49 % 1016,9 hPa 0,0 l/m 6,5 km/h (2 Bft) SO 135 3,4 C 13,9 C
18.05.2012 10:11 13,9 C 48 % 1017,0 hPa 0,0 l/m 14,8 km/h (3 Bft) S 180 3,1 C 13,9 C
18.05.2012 10:16 13,9 C 48 % 1017,0 hPa 0,0 l/m 6,5 km/h (2 Bft) SO 135 3,1 C 13,9 C
18.05.2012 10:21 14,1 C 48 % 1017,0 hPa 0,0 l/m 10,1 km/h (2 Bft) SO 135 3,3 C 14,1 C
18.05.2012 10:26 14,2 C 47 % 1016,9 hPa 0,0 l/m 5,8 km/h (2 Bft) SO 135 3,1 C 14,2 C
18.05.2012 10:31 14,4 C 47 % 1016,9 hPa 0,0 l/m 8,6 km/h (2 Bft) S-SO 157 3,2 C 14,4 C
18.05.2012 10:36 14,5 C 47 % 1016,9 hPa 0,0 l/m 3,6 km/h (1 Bft) SO 135 3,3 C 14,5 C
18.05.2012 10:41 14,8 C 47 % 1016,9 hPa 0,0 l/m 4,7 km/h (1 Bft) SO 135 3,6 C 14,8 C
18.05.2012 10:46 14,9 C 46 % 1016,9 hPa 0,0 l/m 13,3 km/h (3 Bft) O-SO 112 3,4 C 14,9 C
18.05.2012 10:51 14,9 C 45 % 1016,8 hPa 0,0 l/m 2,5 km/h (1 Bft) SO 135 3,1 C 14,9 C
18.05.2012 10:56 14,9 C 45 % 1016,7 hPa 0,0 l/m 6,1 km/h (2 Bft) O-SO 112 3,1 C 14,9 C
18.05.2012 11:01 14,9 C 44 % 1016,8 hPa 0,0 l/m 11,2 km/h (2 Bft) S 180 2,8 C 14,9 C
18.05.2012 11:06 14,9 C 44 % 1016,8 hPa 0,0 l/m 13,7 km/h (3 Bft) S 180 2,8 C 14,9 C
18.05.2012 11:11 14,9 C 43 % 1016,7 hPa 0,0 l/m 5,0 km/h (1 Bft) S-SO 157 2,4 C 14,9 C
18.05.2012 11:16 14,9 C 42 % 1016,7 hPa 0,0 l/m 18,4 km/h (3 Bft) SO 135 2,1 C 14,9 C
18.05.2012 11:21 14,9 C 42 % 1016,7 hPa 0,0 l/m 13,0 km/h (3 Bft) O 90 2,1 C 14,9 C
18.05.2012 11:26 14,9 C 42 % 1016,7 hPa 0,0 l/m 8,6 km/h (2 Bft) S-SO 157 2,1 C 14,9 C
18.05.2012 11:31 15,0 C 41 % 1016,7 hPa 0,0 l/m 15,5 km/h (3 Bft) SO 135 1,9 C 15,0 C
18.05.2012 11:36 15,1 C 41 % 1016,7 hPa 0,0 l/m 13,3 km/h (3 Bft) O-SO 112 2,0 C 15,1 C
18.05.2012 11:41 15,3 C 41 % 1016,5 hPa 0,0 l/m 11,2 km/h (2 Bft) SO 135 2,1 C 15,3 C
18.05.2012 11:46 15,3 C 40 % 1016,5 hPa 0,0 l/m 14,4 km/h (3 Bft) SO 135 1,8 C 15,3 C
18.05.2012 11:51 15,2 C 40 % 1016,5 hPa 0,0 l/m 14,4 km/h (3 Bft) S-SO 157 1,7 C 15,2 C
18.05.2012 11:56 15,3 C 41 % 1016,4 hPa 0,0 l/m 7,9 km/h (2 Bft) SO 135 2,1 C 15,3 C
18.05.2012 12:01 15,4 C 40 % 1016,5 hPa 0,0 l/m 14,0 km/h (3 Bft) O-SO 112 1,9 C 15,4 C
18.05.2012 12:06 15,6 C 40 % 1016,4 hPa 0,0 l/m 8,6 km/h (2 Bft) O-SO 112 2,1 C 15,6 C
18.05.2012 12:11 15,8 C 40 % 1016,5 hPa 0,0 l/m 5,8 km/h (2 Bft) SO 135 2,2 C 15,8 C
18.05.2012 12:16 16,0 C 41 % 1016,4 hPa 0,0 l/m 6,1 km/h (2 Bft) S-SO 157 2,8 C 16,0 C
18.05.2012 12:21 16,3 C 40 % 1016,4 hPa 0,0 l/m 7,9 km/h (2 Bft) SO 135 2,7 C 16,3 C
18.05.2012 12:26 16,4 C 40 % 1016,4 hPa 0,0 l/m 12,6 km/h (3 Bft) SO 135 2,8 C 16,4 C
18.05.2012 12:31 16,5 C 40 % 1016,3 hPa 0,0 l/m 6,8 km/h (2 Bft) SO 135 2,9 C 16,5 C
18.05.2012 12:36 16,4 C 39 % 1016,4 hPa 0,0 l/m 12,2 km/h (2 Bft) SO 135 2,4 C 16,4 C
18.05.2012 12:41 16,4 C 39 % 1016,3 hPa 0,0 l/m 15,8 km/h (3 Bft) S-SO 157 2,4 C 16,4 C
18.05.2012 12:46 16,5 C 39 % 1016,3 hPa 0,0 l/m 29,2 km/h (5 Bft) SO 135 2,5 C 16,5 C
18.05.2012 12:51 16,6 C 39 % 1016,2 hPa 0,0 l/m 10,4 km/h (2 Bft) SO 135 2,6 C 16,6 C
18.05.2012 12:56 16,9 C 39 % 1016,1 hPa 0,0 l/m 14,4 km/h (3 Bft) SO 135 2,9 C 16,9 C
18.05.2012 13:01 16,9 C 38 % 1016,1 hPa 0,0 l/m 11,5 km/h (2 Bft) SO 135 2,5 C 16,9 C
18.05.2012 13:06 17,0 C 38 % 1016,1 hPa 0,0 l/m 19,8 km/h (3 Bft) O 90 2,6 C 17,0 C
18.05.2012 13:11 17,1 C 38 % 1016,1 hPa 0,0 l/m 15,8 km/h (3 Bft) SO 135 2,7 C 17,1 C
18.05.2012 13:16 17,3 C 38 % 1016,0 hPa 0,0 l/m 7,2 km/h (2 Bft) S-SO 157 2,9 C 17,3 C
18.05.2012 13:21 17,4 C 37 % 1016,0 hPa 0,0 l/m 1,8 km/h (1 Bft) O-NO 67 2,6 C 17,4 C
18.05.2012 13:26 17,2 C 37 % 1015,9 hPa 0,0 l/m 4,3 km/h (1 Bft) SO 135 2,4 C 17,2 C
18.05.2012 13:31 17,2 C 37 % 1015,8 hPa 0,0 l/m 6,5 km/h (2 Bft) O-SO 112 2,4 C 17,2 C
18.05.2012 13:36 17,4 C 37 % 1015,8 hPa 0,0 l/m 14,0 km/h (3 Bft) S 180 2,6 C 17,4 C
18.05.2012 13:41 17,8 C 37 % 1015,8 hPa 0,0 l/m 15,8 km/h (3 Bft) S-SO 157 2,9 C 17,8 C
18.05.2012 13:46 17,9 C 37 % 1015,7 hPa 0,0 l/m 15,8 km/h (3 Bft) S 180 3,0 C 17,9 C
18.05.2012 13:51 18,1 C 36 % 1015,7 hPa 0,0 l/m 12,2 km/h (2 Bft) O-SO 112 2,8 C 18,1 C
18.05.2012 13:56 18,3 C 36 % 1015,6 hPa 0,0 l/m 9,7 km/h (2 Bft) S-SO 157 3,0 C 18,3 C
18.05.2012 14:01 18,4 C 35 % 1015,4 hPa 0,0 l/m 11,9 km/h (2 Bft) S-SO 157 2,7 C 18,4 C
18.05.2012 14:06 18,4 C 35 % 1015,6 hPa 0,0 l/m 9,4 km/h (2 Bft) O-SO 112 2,7 C 18,4 C
18.05.2012 14:11 18,6 C 35 % 1015,4 hPa 0,0 l/m 28,4 km/h (4 Bft) S-SO 157 2,8 C 18,6 C
18.05.2012 14:16 18,8 C 36 % 1015,5 hPa 0,0 l/m 4,3 km/h (1 Bft) O-SO 112 3,4 C 18,8 C
18.05.2012 14:21 18,9 C 36 % 1015,5 hPa 0,0 l/m 20,9 km/h (4 Bft) O-NO 67 3,5 C 18,9 C
18.05.2012 14:26 18,6 C 34 % 1015,3 hPa 0,0 l/m 16,6 km/h (3 Bft) O 90 2,4 C 18,6 C
18.05.2012 14:31 18,4 C 34 % 1015,5 hPa 0,0 l/m 7,6 km/h (2 Bft) O-NO 67 2,3 C 18,4 C
18.05.2012 14:36 18,3 C 36 % 1015,2 hPa 0,0 l/m 18,7 km/h (3 Bft) O 90 3,0 C 18,3 C
18.05.2012 14:41 18,3 C 35 % 1015,2 hPa 0,0 l/m 14,4 km/h (3 Bft) SO 135 2,6 C 18,3 C
18.05.2012 14:46 18,1 C 35 % 1015,3 hPa 0,0 l/m 8,3 km/h (2 Bft) O-NO 67 2,4 C 18,1 C
18.05.2012 14:51 18,0 C 36 % 1015,1 hPa 0,0 l/m 10,1 km/h (2 Bft) S-SO 157 2,7 C 18,0 C
18.05.2012 14:56 17,9 C 36 % 1015,0 hPa 0,0 l/m 19,1 km/h (3 Bft) S-SO 157 2,6 C 17,9 C
18.05.2012 15:01 17,9 C 36 % 1015,1 hPa 0,0 l/m 15,5 km/h (3 Bft) SO 135 2,6 C 17,9 C
18.05.2012 15:06 17,9 C 36 % 1015,1 hPa 0,0 l/m 14,8 km/h (3 Bft) O-SO 112 2,6 C 17,9 C
18.05.2012 15:11 18,1 C 36 % 1015,0 hPa 0,0 l/m 5,0 km/h (1 Bft) S-SO 157 2,8 C 18,1 C
18.05.2012 15:16 18,1 C 36 % 1014,9 hPa 0,0 l/m 6,5 km/h (2 Bft) O-SO 112 2,8 C 18,1 C
18.05.2012 15:21 17,9 C 36 % 1015,0 hPa 0,0 l/m 9,7 km/h (2 Bft) O-SO 112 2,6 C 17,9 C
18.05.2012 15:26 17,9 C 35 % 1015,0 hPa 0,0 l/m 5,0 km/h (1 Bft) S 180 2,2 C 17,9 C
18.05.2012 15:31 18,0 C 35 % 1014,9 hPa 0,0 l/m 16,2 km/h (3 Bft) O 90 2,3 C 18,0 C
18.05.2012 15:36 18,3 C 36 % 1014,9 hPa 0,0 l/m 7,6 km/h (2 Bft) S-SO 157 3,0 C 18,3 C
18.05.2012 15:41 18,4 C 35 % 1014,6 hPa 0,0 l/m 17,3 km/h (3 Bft) SO 135 2,7 C 18,4 C
18.05.2012 15:46 18,4 C 35 % 1014,7 hPa 0,0 l/m 8,3 km/h (2 Bft) O-SO 112 2,7 C 18,4 C
18.05.2012 15:51 18,3 C 35 % 1014,7 hPa 0,0 l/m 5,8 km/h (2 Bft) SO 135 2,6 C 18,3 C
18.05.2012 15:56 18,3 C 35 % 1014,7 hPa 0,0 l/m 16,9 km/h (3 Bft) O 90 2,6 C 18,3 C
18.05.2012 16:01 18,2 C 35 % 1014,8 hPa 0,0 l/m 23,0 km/h (4 Bft) SO 135 2,5 C 18,2 C
18.05.2012 16:06 18,2 C 35 % 1014,7 hPa 0,0 l/m 4,3 km/h (1 Bft) O-SO 112 2,5 C 18,2 C
18.05.2012 16:11 18,4 C 34 % 1014,6 hPa 0,0 l/m 8,6 km/h (2 Bft) S-SO 157 2,3 C 18,4 C
18.05.2012 16:16 18,3 C 33 % 1014,5 hPa 0,0 l/m 13,3 km/h (3 Bft) S 180 1,8 C 18,3 C
18.05.2012 16:21 18,1 C 33 % 1014,7 hPa 0,0 l/m 15,5 km/h (3 Bft) S-SO 157 1,6 C 18,1 C
18.05.2012 16:26 18,0 C 34 % 1014,7 hPa 0,0 l/m 8,3 km/h (2 Bft) SO 135 1,9 C 18,0 C
18.05.2012 16:31 17,9 C 34 % 1014,6 hPa 0,0 l/m 4,0 km/h (1 Bft) O-SO 112 1,8 C 17,9 C
18.05.2012 16:36 17,9 C 34 % 1014,5 hPa 0,0 l/m 30,2 km/h (5 Bft) S-SO 157 1,8 C 17,9 C
18.05.2012 16:41 17,9 C 33 % 1014,5 hPa 0,0 l/m 10,8 km/h (2 Bft) O 90 1,4 C 17,9 C
18.05.2012 16:46 17,8 C 34 % 1014,6 hPa 0,0 l/m 12,2 km/h (2 Bft) SO 135 1,7 C 17,8 C
18.05.2012 16:51 17,9 C 34 % 1014,7 hPa 0,0 l/m 7,6 km/h (2 Bft) S-SO 157 1,8 C 17,9 C
18.05.2012 16:56 17,9 C 33 % 1014,7 hPa 0,0 l/m 8,6 km/h (2 Bft) S-SO 157 1,4 C 17,9 C
18.05.2012 17:01 17,9 C 34 % 1014,7 hPa 0,0 l/m 16,6 km/h (3 Bft) O-SO 112 1,8 C 17,9 C
18.05.2012 17:06 17,9 C 33 % 1014,6 hPa 0,0 l/m 16,6 km/h (3 Bft) S-SO 157 1,4 C 17,9 C
18.05.2012 17:11 17,9 C 33 % 1014,7 hPa 0,0 l/m 17,6 km/h (3 Bft) O-SO 112 1,4 C 17,9 C
18.05.2012 17:16 18,1 C 34 % 1014,5 hPa 0,0 l/m 10,4 km/h (2 Bft) O-SO 112 2,0 C 18,1 C
18.05.2012 17:21 18,5 C 34 % 1014,4 hPa 0,0 l/m 6,5 km/h (2 Bft) S-SO 157 2,3 C 18,5 C
18.05.2012 17:26 18,9 C 34 % 1014,4 hPa 0,0 l/m 22,3 km/h (4 Bft) SO 135 2,7 C 18,9 C
18.05.2012 17:31 18,8 C 33 % 1014,3 hPa 0,0 l/m 15,5 km/h (3 Bft) SO 135 2,2 C 18,8 C
18.05.2012 17:36 18,8 C 34 % 1014,3 hPa 0,0 l/m 14,4 km/h (3 Bft) SO 135 2,6 C 18,8 C
18.05.2012 17:41 18,5 C 33 % 1014,2 hPa 0,0 l/m 12,6 km/h (3 Bft) O-NO 67 1,9 C 18,5 C
18.05.2012 17:46 18,3 C 34 % 1014,3 hPa 0,0 l/m 19,1 km/h (3 Bft) O 90 2,2 C 18,3 C
18.05.2012 17:51 18,3 C 34 % 1014,3 hPa 0,0 l/m 11,9 km/h (2 Bft) O-SO 112 2,2 C 18,3 C
18.05.2012 17:56 18,4 C 34 % 1014,1 hPa 0,0 l/m 15,5 km/h (3 Bft) SO 135 2,3 C 18,4 C
18.05.2012 18:01 18,4 C 34 % 1014,2 hPa 0,0 l/m 16,6 km/h (3 Bft) S-SO 157 2,3 C 18,4 C
18.05.2012 18:06 18,3 C 34 % 1014,0 hPa 0,0 l/m 6,8 km/h (2 Bft) O-SO 112 2,2 C 18,3 C
18.05.2012 18:11 18,3 C 34 % 1014,0 hPa 0,0 l/m 5,4 km/h (1 Bft) SO 135 2,2 C 18,3 C
18.05.2012 18:16 18,2 C 34 % 1014,0 hPa 0,0 l/m 25,2 km/h (4 Bft) S-SO 157 2,1 C 18,2 C
18.05.2012 18:21 18,3 C 34 % 1014,0 hPa 0,0 l/m 14,4 km/h (3 Bft) S-SO 157 2,2 C 18,3 C
18.05.2012 18:26 18,4 C 34 % 1014,0 hPa 0,0 l/m 8,3 km/h (2 Bft) SO 135 2,3 C 18,4 C
18.05.2012 18:31 18,4 C 34 % 1013,9 hPa 0,0 l/m 15,1 km/h (3 Bft) SO 135 2,3 C 18,4 C
18.05.2012 18:36 18,2 C 34 % 1014,0 hPa 0,0 l/m 11,2 km/h (2 Bft) SO 135 2,1 C 18,2 C
18.05.2012 18:41 17,9 C 34 % 1014,1 hPa 0,0 l/m 16,6 km/h (3 Bft) S-SO 157 1,8 C 17,9 C
18.05.2012 18:46 17,9 C 35 % 1014,1 hPa 0,0 l/m 19,1 km/h (3 Bft) S-SO 157 2,2 C 17,9 C
18.05.2012 18:51 17,9 C 35 % 1013,9 hPa 0,0 l/m 9,4 km/h (2 Bft) O-SO 112 2,2 C 17,9 C
18.05.2012 18:56 17,9 C 34 % 1013,9 hPa 0,0 l/m 10,1 km/h (2 Bft) S-SO 157 1,8 C 17,9 C
18.05.2012 19:01 17,8 C 34 % 1014,1 hPa 0,0 l/m 10,4 km/h (2 Bft) SO 135 1,7 C 17,8 C
18.05.2012 19:06 17,8 C 35 % 1014,0 hPa 0,0 l/m 8,6 km/h (2 Bft) O 90 2,1 C 17,8 C
18.05.2012 19:11 17,6 C 35 % 1014,2 hPa 0,0 l/m 9,7 km/h (2 Bft) S-SO 157 2,0 C 17,6 C
18.05.2012 19:16 17,6 C 35 % 1014,2 hPa 0,0 l/m 8,6 km/h (2 Bft) S-SO 157 2,0 C 17,6 C
18.05.2012 19:21 17,8 C 35 % 1014,0 hPa 0,0 l/m 7,2 km/h (2 Bft) O 90 2,1 C 17,8 C
18.05.2012 19:26 17,6 C 35 % 1014,2 hPa 0,0 l/m 6,1 km/h (2 Bft) SO 135 2,0 C 17,6 C
18.05.2012 19:31 17,6 C 36 % 1014,2 hPa 0,0 l/m 7,6 km/h (2 Bft) O-SO 112 2,4 C 17,6 C
18.05.2012 19:36 17,6 C 36 % 1014,2 hPa 0,0 l/m 6,5 km/h (2 Bft) O 90 2,4 C 17,6 C
18.05.2012 19:41 17,4 C 36 % 1014,2 hPa 0,0 l/m 4,0 km/h (1 Bft) SO 135 2,2 C 17,4 C
18.05.2012 19:46 17,4 C 37 % 1014,3 hPa 0,0 l/m 9,7 km/h (2 Bft) SO 135 2,6 C 17,4 C
18.05.2012 19:51 17,4 C 37 % 1014,3 hPa 0,0 l/m 20,2 km/h (4 Bft) SO 135 2,6 C 17,4 C
18.05.2012 19:56 17,3 C 37 % 1014,4 hPa 0,0 l/m 11,2 km/h (2 Bft) SO 135 2,5 C 17,3 C
18.05.2012 20:01 17,0 C 38 % 1014,2 hPa 0,0 l/m 2,5 km/h (1 Bft) O 90 2,6 C 17,0 C
18.05.2012 20:06 16,9 C 38 % 1014,3 hPa 0,0 l/m 5,0 km/h (1 Bft) SO 135 2,5 C 16,9 C
18.05.2012 20:11 16,8 C 39 % 1014,3 hPa 0,0 l/m 3,2 km/h (1 Bft) S-SO 157 2,8 C 16,8 C
18.05.2012 20:16 16,6 C 39 % 1014,4 hPa 0,0 l/m 9,0 km/h (2 Bft) SO 135 2,6 C 16,6 C
18.05.2012 20:21 16,4 C 39 % 1014,3 hPa 0,0 l/m 3,2 km/h (1 Bft) SO 135 2,4 C 16,4 C
18.05.2012 20:26 16,3 C 40 % 1014,4 hPa 0,0 l/m 7,6 km/h (2 Bft) SO 135 2,7 C 16,3 C
18.05.2012 20:31 16,2 C 41 % 1014,5 hPa 0,0 l/m 2,5 km/h (1 Bft) O 90 2,9 C 16,2 C
18.05.2012 20:36 15,9 C 41 % 1014,5 hPa 0,0 l/m 4,0 km/h (1 Bft) S-SO 157 2,7 C 15,9 C
18.05.2012 20:41 15,8 C 42 % 1014,5 hPa 0,0 l/m 9,4 km/h (2 Bft) S-SO 157 2,9 C 15,8 C
18.05.2012 20:46 15,6 C 42 % 1014,5 hPa 0,0 l/m 2,5 km/h (1 Bft) O-SO 112 2,7 C 15,6 C
18.05.2012 20:51 15,4 C 43 % 1014,5 hPa 0,0 l/m 3,2 km/h (1 Bft) O-SO 112 2,9 C 15,4 C
18.05.2012 20:56 15,3 C 43 % 1014,6 hPa 0,0 l/m 3,2 km/h (1 Bft) O-NO 67 2,8 C 15,3 C
18.05.2012 21:01 14,9 C 44 % 1014,7 hPa 0,0 l/m 4,0 km/h (1 Bft) SO 135 2,8 C 14,9 C
18.05.2012 21:06 14,9 C 44 % 1014,7 hPa 0,0 l/m 6,1 km/h (2 Bft) SO 135 2,8 C 14,9 C
18.05.2012 21:11 14,8 C 45 % 1014,7 hPa 0,0 l/m 5,0 km/h (1 Bft) S-SO 157 3,0 C 14,8 C
18.05.2012 21:16 14,6 C 45 % 1014,8 hPa 0,0 l/m 4,0 km/h (1 Bft) O-SO 112 2,8 C 14,6 C
18.05.2012 21:21 14,4 C 46 % 1014,7 hPa 0,0 l/m 2,2 km/h (1 Bft) O 90 2,9 C 14,4 C
18.05.2012 21:26 14,3 C 47 % 1014,7 hPa 0,0 l/m 3,2 km/h (1 Bft) O-SO 112 3,1 C 14,3 C
18.05.2012 21:31 14,1 C 47 % 1014,7 hPa 0,0 l/m 4,0 km/h (1 Bft) O 90 3,0 C 14,1 C
18.05.2012 21:36 14,0 C 47 % 1014,7 hPa 0,0 l/m 6,1 km/h (2 Bft) O 90 2,9 C 14,0 C
18.05.2012 21:41 13,9 C 47 % 1014,6 hPa 0,0 l/m 4,0 km/h (1 Bft) O-SO 112 2,8 C 13,9 C
18.05.2012 21:46 13,8 C 48 % 1014,5 hPa 0,0 l/m 4,7 km/h (1 Bft) SO 135 3,0 C 13,8 C
18.05.2012 21:51 13,8 C 48 % 1014,6 hPa 0,0 l/m 4,3 km/h (1 Bft) O-NO 67 3,0 C 13,8 C
18.05.2012 21:56 13,8 C 48 % 1014,6 hPa 0,0 l/m 3,2 km/h (1 Bft) O 90 3,0 C 13,8 C
18.05.2012 22:01 13,8 C 48 % 1014,7 hPa 0,0 l/m 4,0 km/h (1 Bft) SO 135 3,0 C 13,8 C
18.05.2012 22:06 13,6 C 48 % 1014,7 hPa 0,0 l/m 5,0 km/h (1 Bft) SO 135 2,8 C 13,6 C
18.05.2012 22:11 13,6 C 48 % 1014,6 hPa 0,0 l/m 3,6 km/h (1 Bft) O 90 2,8 C 13,6 C
18.05.2012 22:16 13,5 C 49 % 1014,8 hPa 0,0 l/m 3,2 km/h (1 Bft) O-SO 112 3,0 C 13,5 C
18.05.2012 22:21 13,5 C 49 % 1014,8 hPa 0,0 l/m 4,7 km/h (1 Bft) S-SO 157 3,0 C 13,5 C
18.05.2012 22:26 13,4 C 49 % 1014,5 hPa 0,0 l/m 6,5 km/h (2 Bft) O-SO 112 2,9 C 13,4 C
18.05.2012 22:31 13,4 C 49 % 1014,6 hPa 0,0 l/m 4,0 km/h (1 Bft) SO 135 2,9 C 13,4 C
18.05.2012 22:36 13,4 C 49 % 1014,6 hPa 0,0 l/m 6,5 km/h (2 Bft) S 180 2,9 C 13,4 C
18.05.2012 22:41 13,4 C 49 % 1014,6 hPa 0,0 l/m 7,2 km/h (2 Bft) O-SO 112 2,9 C 13,4 C
18.05.2012 22:46 13,3 C 49 % 1014,5 hPa 0,0 l/m 5,0 km/h (1 Bft) O 90 2,8 C 13,3 C
18.05.2012 22:51 13,3 C 49 % 1014,6 hPa 0,0 l/m 2,5 km/h (1 Bft) SO 135 2,8 C 13,3 C
18.05.2012 22:56 13,2 C 49 % 1014,7 hPa 0,0 l/m 6,8 km/h (2 Bft) O-SO 112 2,7 C 13,2 C
18.05.2012 23:01 13,0 C 49 % 1014,6 hPa 0,0 l/m 6,1 km/h (2 Bft) O-SO 112 2,5 C 13,0 C
18.05.2012 23:06 12,9 C 50 % 1014,7 hPa 0,0 l/m 2,5 km/h (1 Bft) O-SO 112 2,7 C 12,9 C
18.05.2012 23:11 12,8 C 50 % 1014,6 hPa 0,0 l/m 2,5 km/h (1 Bft) O-SO 112 2,6 C 12,8 C
18.05.2012 23:16 12,6 C 51 % 1014,6 hPa 0,0 l/m 2,2 km/h (1 Bft) SO 135 2,7 C 12,6 C
18.05.2012 23:21 12,5 C 51 % 1014,6 hPa 0,0 l/m 3,6 km/h (1 Bft) O-SO 112 2,6 C 12,5 C
18.05.2012 23:26 12,4 C 52 % 1014,6 hPa 0,0 l/m 3,2 km/h (1 Bft) SO 135 2,8 C 12,4 C
18.05.2012 23:31 12,3 C 52 % 1014,6 hPa 0,0 l/m 3,6 km/h (1 Bft) SO 135 2,7 C 12,3 C
18.05.2012 23:36 12,3 C 52 % 1014,6 hPa 0,0 l/m 2,5 km/h (1 Bft) O-SO 112 2,7 C 12,3 C
18.05.2012 23:41 12,1 C 53 % 1014,6 hPa 0,0 l/m 4,3 km/h (1 Bft) O-SO 112 2,8 C 12,1 C
18.05.2012 23:46 12,0 C 53 % 1014,5 hPa 0,0 l/m 2,9 km/h (1 Bft) SO 135 2,7 C 12,0 C
18.05.2012 23:51 11,9 C 53 % 1014,6 hPa 0,0 l/m 7,6 km/h (2 Bft) O 90 2,6 C 11,9 C
18.05.2012 23:56 11,9 C 53 % 1014,7 hPa 0,0 l/m 5,8 km/h (2 Bft) O-SO 112 2,6 C 11,9 C
_ Min-Zeit 05:06 16:16 18:31 - 00:01 - - 16:41 06:01
Minimum _ 5,6 C 33 % 1013,9 hPa - 0,0 km/h (0 Bft) - - 1,4 C 4,5 C
_ Max-Zeit 14:21 06:01 00:01 00:01 16:36 - - 07:36 14:21
Maximum _ 18,9 C 78 % 1019,2 hPa 0,0 l/m 30,2 km/h
S-SO (5 Bft)
- - 4,1 C 18,9 C
Durchschnitt _ 12,7 C 53 % 1016,3 hPa #0,0 l/m 7,0 km/h (2 Bft) SO - 2,6 C 12,6 C
(c) by David Heller